Time;durP1;ratioP1;P1;durP2;ratioP2;P2;SDS_P1;SDS_P2;PMS_P1;PMS_P2;Temp;Humidity;BMP_temperature;BMP_pressure;BME280_temperature;BME280_humidity;BME280_pressure;Samples;Min_cycle;Max_cycle;Signal;HPM_P1;HPM_P2
2024/02/27 00:00:12;;;;;;;21.47;14.63;;;;;22.20;100183.00;;;;2063836;28;20215;-70
2024/02/27 00:01:12;;;;;;;22.70;15.53;;;;;22.20;100191.00;;;;2053233;28;20227;-70
2024/02/27 00:02:13;;;;;;;22.67;14.73;;;;;22.20;100184.00;;;;2063696;28;20215;-70
2024/02/27 00:03:13;;;;;;;22.10;15.47;;;;;22.20;100189.00;;;;2063831;28;20213;-70
2024/02/27 00:04:14;;;;;;;20.50;14.30;;;;;22.20;100183.00;;;;2062525;28;20470;-70
2024/02/27 00:05:14;;;;;;;19.63;14.60;;;;;22.20;100191.00;;;;2063219;28;20215;-70
2024/02/27 00:06:14;;;;;;;20.40;13.50;;;;;22.20;100190.00;;;;2051800;28;20888;-70
2024/02/27 00:07:15;;;;;;;19.80;14.63;;;;;22.20;100197.00;;;;2063809;28;20718;-70
2024/02/27 00:08:15;;;;;;;20.10;13.60;;;;;22.20;100198.00;;;;2062046;28;20694;-70
2024/02/27 00:09:18;;;;;;;20.40;14.43;;;;;22.20;100194.00;;;;2063856;28;20218;-70
2024/02/27 00:10:18;;;;;;;20.65;14.35;;;;;22.20;100193.00;;;;2061405;28;20584;-70
2024/02/27 00:11:19;;;;;;;20.60;13.83;;;;;22.20;100197.00;;;;2049870;28;20231;-70
2024/02/27 00:12:21;;;;;;;19.07;13.63;;;;;22.20;100194.00;;;;2063870;28;20264;-70
2024/02/27 00:13:21;;;;;;;17.33;13.45;;;;;22.20;100193.00;;;;2062114;28;21237;-70
2024/02/27 00:14:22;;;;;;;19.83;12.97;;;;;22.20;100205.00;;;;2063505;28;20217;-70
2024/02/27 00:15:22;;;;;;;19.13;13.40;;;;;22.20;100196.00;;;;2063251;28;20207;-70
2024/02/27 00:16:22;;;;;;;19.87;13.30;;;;;22.20;100205.00;;;;2054117;28;20226;-70
2024/02/27 00:17:23;;;;;;;19.70;12.93;;;;;22.20;100204.00;;;;2060511;28;20214;-70
2024/02/27 00:18:23;;;;;;;22.70;13.87;;;;;22.10;100201.00;;;;2063405;28;20207;-70
2024/02/27 00:19:23;;;;;;;18.93;13.87;;;;;22.10;100205.00;;;;2063680;28;20215;-70
2024/02/27 00:20:25;;;;;;;19.30;13.50;;;;;22.10;100198.00;;;;2063432;28;20238;-70
2024/02/27 00:21:25;;;;;;;18.58;13.55;;;;;22.10;100201.00;;;;2045509;28;20215;-70
2024/02/27 00:22:26;;;;;;;18.47;13.23;;;;;22.10;100202.00;;;;2054174;28;20741;-70
2024/02/27 00:23:27;;;;;;;19.37;13.03;;;;;22.10;100134.00;;;;2061307;28;20253;-70
2024/02/27 00:24:27;;;;;;;16.50;13.13;;;;;22.20;100199.00;;;;2063254;28;20223;-70
2024/02/27 00:25:27;;;;;;;17.80;13.37;;;;;22.10;100207.00;;;;2063159;28;20873;-70
2024/02/27 00:26:27;;;;;;;19.80;12.57;;;;;22.10;100207.00;;;;2045125;28;20266;-70
2024/02/27 00:27:28;;;;;;;16.80;12.60;;;;;22.10;100208.00;;;;2054201;28;20223;-70
2024/02/27 00:28:28;;;;;;;18.47;12.63;;;;;22.10;100208.00;;;;2063447;28;20217;-70
2024/02/27 00:29:31;;;;;;;16.07;11.87;;;;;22.10;100213.00;;;;2059869;28;20219;-70
2024/02/27 00:30:32;;;;;;;19.05;12.10;;;;;22.10;100205.00;;;;2063403;28;20718;-70
2024/02/27 00:31:32;;;;;;;16.30;11.87;;;;;22.10;100208.00;;;;2054011;28;20286;-70
2024/02/27 00:32:32;;;;;;;17.50;12.63;;;;;22.10;100213.00;;;;2050793;28;20211;-70
2024/02/27 00:33:33;;;;;;;14.37;10.83;;;;;22.10;100204.00;;;;2054454;28;20278;-70
2024/02/27 00:34:35;;;;;;;17.23;11.90;;;;;22.10;100213.00;;;;2062890;28;20254;-70
2024/02/27 00:35:35;;;;;;;17.30;12.05;;;;;22.10;100214.00;;;;2063736;28;20218;-70
2024/02/27 00:36:36;;;;;;;14.30;10.90;;;;;22.10;100213.00;;;;2052984;28;20218;-70
2024/02/27 00:37:36;;;;;;;18.30;11.90;;;;;22.10;100218.00;;;;2063404;28;20708;-70
2024/02/27 00:38:36;;;;;;;14.87;11.73;;;;;22.10;100218.00;;;;2062623;28;20384;-70
2024/02/27 00:39:37;;;;;;;14.13;11.67;;;;;22.10;100221.00;;;;2062978;28;20298;-70
2024/02/27 00:40:37;;;;;;;13.73;10.93;;;;;22.00;100185.00;;;;2063522;28;20237;-70
2024/02/27 00:41:39;;;;;;;13.93;10.97;;;;;22.10;100223.00;;;;2052699;28;20222;-70
2024/02/27 00:42:40;;;;;;;15.10;11.75;;;;;22.10;100227.00;;;;2055051;28;20291;-70
2024/02/27 00:43:40;;;;;;;15.60;11.43;;;;;22.10;100115.00;;;;2047002;28;20205;-70
2024/02/27 00:44:45;;;;;;;16.90;11.23;;;;;22.00;100223.00;;;;2051168;28;20314;-70
2024/02/27 00:45:45;;;;;;;14.23;11.68;;;;;22.00;100225.00;;;;2053763;28;20604;-70
2024/02/27 00:46:46;;;;;;;16.10;11.73;;;;;22.00;100225.00;;;;2052988;28;20234;-70
2024/02/27 00:47:46;;;;;;;15.87;11.30;;;;;22.00;100222.00;;;;2062918;28;20206;-70
2024/02/27 00:48:46;;;;;;;15.70;11.17;;;;;22.00;100219.00;;;;2062739;28;20217;-70
2024/02/27 00:49:47;;;;;;;14.23;10.43;;;;;22.00;100198.00;;;;2063639;28;20208;-70
2024/02/27 00:50:48;;;;;;;14.35;10.85;;;;;22.00;100221.00;;;;2063464;28;20215;-70
2024/02/27 00:51:48;;;;;;;14.93;10.13;;;;;22.00;100222.00;;;;2052948;28;20211;-70
2024/02/27 00:52:48;;;;;;;14.37;10.80;;;;;22.00;100211.00;;;;2063477;28;20215;-70
2024/02/27 00:53:49;;;;;;;14.97;10.63;;;;;22.00;100216.00;;;;2060251;28;20215;-70
2024/02/27 00:54:49;;;;;;;14.57;10.53;;;;;22.00;100217.00;;;;2060876;28;20239;-70
2024/02/27 00:55:50;;;;;;;15.00;10.57;;;;;22.00;100221.00;;;;2063383;28;20335;-70
2024/02/27 00:56:50;;;;;;;14.50;10.40;;;;;22.00;100216.00;;;;2053221;28;20289;-70
2024/02/27 00:57:50;;;;;;;14.97;9.90;;;;;22.00;100221.00;;;;2046970;28;20208;-70
2024/02/27 00:58:50;;;;;;;15.43;10.70;;;;;22.00;100223.00;;;;2046490;28;20209;-70
2024/02/27 00:59:51;;;;;;;13.07;10.03;;;;;22.00;100230.00;;;;2063610;28;20207;-70
2024/02/27 01:00:51;;;;;;;13.67;10.33;;;;;22.00;100219.00;;;;2056533;28;20222;-70
2024/02/27 01:01:52;;;;;;;13.73;9.60;;;;;22.00;100163.00;;;;2053940;28;20704;-70
2024/02/27 01:02:52;;;;;;;13.73;10.30;;;;;22.00;100236.00;;;;2063636;28;20679;-70
2024/02/27 01:03:52;;;;;;;14.80;10.03;;;;;22.00;100231.00;;;;2053906;28;20216;-70
2024/02/27 01:04:53;;;;;;;12.10;8.67;;;;;22.00;100227.00;;;;2052223;28;20241;-70
2024/02/27 01:05:53;;;;;;;13.50;9.60;;;;;22.00;100233.00;;;;2057288;28;20219;-70
2024/02/27 01:06:53;;;;;;;11.37;8.17;;;;;22.00;100227.00;;;;2058928;28;20243;-70
2024/02/27 01:07:54;;;;;;;14.63;9.93;;;;;21.90;100240.00;;;;2063048;28;20203;-70
2024/02/27 01:08:54;;;;;;;11.67;9.20;;;;;21.90;100227.00;;;;2053602;28;20237;-70
2024/02/27 01:09:54;;;;;;;12.30;9.07;;;;;21.90;100224.00;;;;2061555;28;20211;-70
2024/02/27 01:10:55;;;;;;;13.20;9.13;;;;;21.90;100231.00;;;;2053091;28;20234;-70
2024/02/27 01:11:55;;;;;;;12.93;9.20;;;;;21.90;100157.00;;;;2063436;28;20218;-70
2024/02/27 01:12:55;;;;;;;12.83;8.93;;;;;21.90;100155.00;;;;2055860;28;20642;-70
2024/02/27 01:13:56;;;;;;;12.17;9.10;;;;;21.90;100235.00;;;;2055751;28;20368;-70
2024/02/27 01:14:56;;;;;;;10.60;8.77;;;;;21.90;100239.00;;;;2063287;28;20927;-70
2024/02/27 01:15:56;;;;;;;12.03;8.50;;;;;21.90;100239.00;;;;2052564;28;20706;-70
2024/02/27 01:16:57;;;;;;;13.90;9.27;;;;;21.90;100241.00;;;;2065118;28;20221;-70
2024/02/27 01:17:58;;;;;;;12.43;8.90;;;;;21.90;100244.00;;;;2064641;28;20211;-70
2024/02/27 01:18:58;;;;;;;11.50;8.07;;;;;21.90;100235.00;;;;2064837;28;20684;-70
2024/02/27 01:19:58;;;;;;;11.40;8.70;;;;;21.90;100215.00;;;;2063472;28;20241;-70
2024/02/27 01:21:00;;;;;;;13.20;8.80;;;;;21.90;100239.00;;;;2053946;28;20211;-70
2024/02/27 01:22:01;;;;;;;11.32;8.75;;;;;21.90;100239.00;;;;2063419;28;20262;-70
2024/02/27 01:23:01;;;;;;;10.00;7.80;;;;;21.90;100235.00;;;;2064270;28;20222;-70
2024/02/27 01:24:05;;;;;;;9.80;7.30;;;;;21.90;100233.00;;;;2064716;28;20211;-70
2024/02/27 01:25:07;;;;;;;11.20;7.97;;;;;21.90;100241.00;;;;2064516;28;20230;-70
2024/02/27 01:26:08;;;;;;;11.70;8.55;;;;;21.90;100239.00;;;;2046553;28;20215;-70
2024/02/27 01:27:08;;;;;;;10.37;7.73;;;;;21.90;100243.00;;;;2053884;28;20219;-70
2024/02/27 01:28:08;;;;;;;10.70;8.10;;;;;21.90;100233.00;;;;2056204;28;20211;-70
2024/02/27 01:29:09;;;;;;;10.33;7.97;;;;;21.90;100203.00;;;;2064455;28;20716;-70
2024/02/27 01:30:10;;;;;;;10.20;7.90;;;;;21.90;100212.00;;;;2063099;28;20211;-70
2024/02/27 01:31:11;;;;;;;11.13;8.25;;;;;21.90;100189.00;;;;2038847;28;20220;-70
2024/02/27 01:32:11;;;;;;;9.43;7.50;;;;;21.90;100246.00;;;;2046029;28;20209;-70
2024/02/27 01:33:11;;;;;;;10.50;7.63;;;;;21.90;100189.00;;;;2056330;28;20259;-70
2024/02/27 01:34:12;;;;;;;10.00;7.43;;;;;21.90;100255.00;;;;2055654;28;20248;-70
2024/02/27 01:35:12;;;;;;;12.30;8.80;;;;;21.90;100213.00;;;;2055327;28;20517;-70
2024/02/27 01:36:12;;;;;;;9.67;6.83;;;;;21.90;100249.00;;;;2030738;28;20232;-70
2024/02/27 01:37:13;;;;;;;11.13;7.83;;;;;21.80;100242.00;;;;2047778;28;20236;-70
2024/02/27 01:38:13;;;;;;;10.90;8.00;;;;;21.80;100250.00;;;;2064869;28;20210;-70
2024/02/27 01:39:13;;;;;;;9.97;7.10;;;;;21.80;100252.00;;;;2055300;28;20886;-70
2024/02/27 01:40:14;;;;;;;11.47;7.10;;;;;21.80;100260.00;;;;2056382;28;20711;-70
2024/02/27 01:41:14;;;;;;;9.10;7.20;;;;;21.80;100263.00;;;;2052775;28;20313;-70
2024/02/27 01:42:14;;;;;;;10.47;7.67;;;;;21.80;100265.00;;;;2064201;28;20685;-70
2024/02/27 01:43:24;;;;;;;11.07;7.53;;;;;21.80;100270.00;;;;2056679;28;20215;-70
2024/02/27 01:44:24;;;;;;;10.95;7.97;;;;;21.80;100263.00;;;;2062062;28;20224;-70
2024/02/27 01:45:25;;;;;;;10.20;7.83;;;;;21.80;100243.00;;;;2064443;28;20234;-70
2024/02/27 01:46:26;;;;;;;9.90;6.93;;;;;21.80;100271.00;;;;2043009;28;20258;-70
2024/02/27 01:47:26;;;;;;;11.53;8.53;;;;;21.80;100239.00;;;;2048079;28;20464;-70
2024/02/27 01:48:27;;;;;;;9.10;6.90;;;;;21.80;100199.00;;;;2039662;29;20240;-70
2024/02/27 01:49:27;;;;;;;9.57;6.50;;;;;21.80;100212.00;;;;2047957;28;20303;-70
2024/02/27 01:50:28;;;;;;;8.37;6.37;;;;;21.80;100238.00;;;;2040038;29;20217;-70
2024/02/27 01:51:28;;;;;;;9.43;7.50;;;;;21.80;100200.00;;;;2037714;28;20730;-70
2024/02/27 01:52:28;;;;;;;8.80;6.60;;;;;21.80;100253.00;;;;2054889;28;20582;-70
2024/02/27 01:53:29;;;;;;;7.93;6.40;;;;;21.80;100261.00;;;;2050407;28;20542;-70
2024/02/27 01:54:29;;;;;;;8.40;6.80;;;;;21.80;100265.00;;;;2038341;29;20290;-70
2024/02/27 01:55:30;;;;;;;8.80;6.40;;;;;21.80;100268.00;;;;2047466;28;20239;-70
2024/02/27 01:56:30;;;;;;;9.37;6.67;;;;;21.80;100269.00;;;;2046524;28;20215;-70
2024/02/27 01:57:30;;;;;;;8.40;7.07;;;;;21.80;100265.00;;;;2064722;28;20230;-70
2024/02/27 01:58:31;;;;;;;9.57;6.43;;;;;21.80;100267.00;;;;2064067;28;20250;-70
2024/02/27 01:59:31;;;;;;;8.33;5.70;;;;;21.80;100261.00;;;;2056053;28;20211;-70
2024/02/27 02:00:32;;;;;;;8.10;6.40;;;;;21.80;100274.00;;;;2047914;28;20287;-70
2024/02/27 02:01:33;;;;;;;7.70;5.90;;;;;21.80;100282.00;;;;2045705;28;20215;-70
2024/02/27 02:02:34;;;;;;;9.63;6.20;;;;;21.70;100269.00;;;;2055386;28;20208;-70
2024/02/27 02:03:36;;;;;;;7.80;5.93;;;;;21.70;100261.00;;;;2064520;28;20516;-70
2024/02/27 02:04:37;;;;;;;8.45;6.40;;;;;21.70;100276.00;;;;2055557;28;20251;-70
2024/02/27 02:05:37;;;;;;;9.77;6.75;;;;;21.70;100271.00;;;;2047539;28;20582;-70
2024/02/27 02:06:38;;;;;;;8.80;6.70;;;;;21.70;100281.00;;;;2046390;28;20276;-70
2024/02/27 02:07:40;;;;;;;7.80;6.37;;;;;21.70;100267.00;;;;2054200;28;20224;-70
2024/02/27 02:08:40;;;;;;;10.27;6.35;;;;;21.80;100285.00;;;;2056171;28;20215;-70
2024/02/27 02:09:40;;;;;;;9.13;6.17;;;;;21.70;100278.00;;;;2054141;28;20230;-70
2024/02/27 02:10:41;;;;;;;8.67;5.63;;;;;21.70;100252.00;;;;2055519;28;20211;-70
2024/02/27 02:11:42;;;;;;;7.97;5.80;;;;;21.70;100255.00;;;;2044020;28;20216;-70
2024/02/27 02:12:42;;;;;;;7.85;6.03;;;;;21.70;100277.00;;;;2055356;28;20255;-70
2024/02/27 02:13:42;;;;;;;8.00;5.50;;;;;21.70;100282.00;;;;2055866;28;20219;-70
2024/02/27 02:14:43;;;;;;;9.03;6.00;;;;;21.70;100280.00;;;;2062962;28;20226;-70
2024/02/27 02:15:43;;;;;;;8.23;6.00;;;;;21.70;100280.00;;;;2064652;28;20268;-70
2024/02/27 02:16:44;;;;;;;7.80;5.97;;;;;21.70;100275.00;;;;2046130;28;20212;-70
2024/02/27 02:17:44;;;;;;;8.07;6.20;;;;;21.70;100272.00;;;;2055695;28;20246;-70
2024/02/27 02:18:44;;;;;;;6.83;5.37;;;;;21.70;100286.00;;;;2063084;28;20301;-70
2024/02/27 02:19:45;;;;;;;7.43;5.70;;;;;21.70;100280.00;;;;2063542;28;20962;-70
2024/02/27 02:20:45;;;;;;;6.93;5.50;;;;;21.70;100280.00;;;;2062775;28;20701;-70
2024/02/27 02:21:48;;;;;;;8.47;6.33;;;;;21.70;100279.00;;;;2054597;28;20219;-70
2024/02/27 02:22:49;;;;;;;7.80;5.60;;;;;21.70;100283.00;;;;2055175;28;20219;-70
2024/02/27 02:23:49;;;;;;;8.10;5.70;;;;;21.70;100176.00;;;;2055571;28;20223;-70
2024/02/27 02:24:49;;;;;;;7.50;5.40;;;;;21.70;100288.00;;;;2054820;28;20215;-70
2024/02/27 02:25:50;;;;;;;8.13;5.80;;;;;21.70;100286.00;;;;2055651;28;20655;-70
2024/02/27 02:26:50;;;;;;;6.60;5.47;;;;;21.70;100288.00;;;;2054153;28;20715;-70
2024/02/27 02:27:50;;;;;;;9.63;6.03;;;;;21.70;100293.00;;;;2055889;28;20876;-70
2024/02/27 02:28:51;;;;;;;8.90;5.63;;;;;21.60;100293.00;;;;2047195;28;20216;-70
2024/02/27 02:29:51;;;;;;;7.00;5.07;;;;;21.60;100257.00;;;;2059028;28;20203;-70
2024/02/27 02:30:51;;;;;;;7.63;5.37;;;;;21.60;100290.00;;;;2072592;28;20237;-70
2024/02/27 02:31:52;;;;;;;8.43;5.50;;;;;21.70;100284.00;;;;2054794;28;20218;-70
2024/02/27 02:32:52;;;;;;;7.93;5.43;;;;;21.70;100288.00;;;;2054490;28;20219;-70
2024/02/27 02:33:52;;;;;;;6.60;5.50;;;;;21.60;100287.00;;;;2054822;28;20279;-70
2024/02/27 02:34:53;;;;;;;7.50;5.00;;;;;21.60;100296.00;;;;2064468;28;20214;-70
2024/02/27 02:35:53;;;;;;;6.60;5.33;;;;;21.60;100296.00;;;;2060226;28;20211;-70
2024/02/27 02:36:54;;;;;;;7.43;5.43;;;;;21.70;100296.00;;;;2057101;28;20253;-70
2024/02/27 02:37:54;;;;;;;6.70;5.20;;;;;21.60;100288.00;;;;2064411;28;20273;-70
2024/02/27 02:38:54;;;;;;;7.07;5.47;;;;;21.70;100303.00;;;;2053029;28;20207;-70
2024/02/27 02:39:57;;;;;;;5.70;4.30;;;;;21.60;100295.00;;;;2055761;28;20218;-70
2024/02/27 02:40:57;;;;;;;6.70;4.93;;;;;21.60;100298.00;;;;2054189;28;20210;-70
2024/02/27 02:41:58;;;;;;;7.03;5.13;;;;;21.70;100300.00;;;;2064470;28;20234;-70
2024/02/27 02:42:58;;;;;;;6.70;5.00;;;;;21.70;100291.00;;;;2063646;28;20223;-70
2024/02/27 02:43:58;;;;;;;6.93;4.80;;;;;21.60;100304.00;;;;2062541;28;20211;-70
2024/02/27 02:44:58;;;;;;;6.37;5.20;;;;;21.60;100299.00;;;;2064229;28;20215;-70
2024/02/27 02:45:59;;;;;;;6.60;4.80;;;;;21.60;100299.00;;;;2054611;28;20207;-70
2024/02/27 02:46:59;;;;;;;6.73;5.10;;;;;21.60;100264.00;;;;2062833;28;20215;-70
2024/02/27 02:48:00;;;;;;;6.37;4.90;;;;;21.60;100304.00;;;;2063786;28;20597;-70
2024/02/27 02:49:01;;;;;;;5.30;4.10;;;;;21.60;100309.00;;;;2064242;28;20566;-70
2024/02/27 02:50:02;;;;;;;6.57;5.05;;;;;21.60;100236.00;;;;2064338;28;20203;-70
2024/02/27 02:51:02;;;;;;;6.18;4.47;;;;;21.60;100308.00;;;;2045139;28;20270;-70
2024/02/27 02:52:03;;;;;;;7.73;5.20;;;;;21.60;100307.00;;;;2055643;28;20707;-70
2024/02/27 02:53:03;;;;;;;6.93;5.13;;;;;21.60;100315.00;;;;2063805;28;20713;-70
2024/02/27 02:54:03;;;;;;;6.10;4.20;;;;;21.60;100316.00;;;;2064079;28;20613;-70
2024/02/27 02:55:07;;;;;;;5.83;4.20;;;;;21.60;100313.00;;;;2064166;28;20668;-70
2024/02/27 02:56:07;;;;;;;6.35;4.80;;;;;21.60;100297.00;;;;2045866;28;20231;-70
2024/02/27 02:57:07;;;;;;;6.33;4.70;;;;;21.60;100320.00;;;;2038228;29;20213;-70
2024/02/27 02:58:11;;;;;;;6.17;4.40;;;;;21.60;100324.00;;;;2046876;28;20247;-70
2024/02/27 02:59:11;;;;;;;6.88;4.93;;;;;21.60;100320.00;;;;2063372;28;20297;-70
2024/02/27 03:00:12;;;;;;;6.57;4.57;;;;;21.60;100315.00;;;;2063684;28;20663;-70
2024/02/27 03:01:12;;;;;;;5.80;4.30;;;;;21.30;100320.00;;;;2054632;28;20222;-70
2024/02/27 03:02:12;;;;;;;6.87;5.13;;;;;21.50;100300.00;;;;2063359;28;20552;-70
2024/02/27 03:03:13;;;;;;;6.43;5.00;;;;;21.50;100318.00;;;;2064123;28;20713;-70
2024/02/27 03:04:13;;;;;;;5.87;4.33;;;;;21.50;100316.00;;;;2063460;28;20217;-70
2024/02/27 03:05:13;;;;;;;6.40;4.80;;;;;21.50;100322.00;;;;2063894;28;20230;-70
2024/02/27 03:06:14;;;;;;;5.23;3.77;;;;;21.50;100316.00;;;;2054002;28;20286;-70
2024/02/27 03:07:15;;;;;;;5.17;3.87;;;;;21.50;100322.00;;;;2063969;28;20286;-70
2024/02/27 03:08:15;;;;;;;5.43;4.17;;;;;21.50;100304.00;;;;2064201;28;20756;-70
2024/02/27 03:09:15;;;;;;;6.17;4.40;;;;;21.60;100168.00;;;;2063555;28;20225;-70
2024/02/27 03:10:16;;;;;;;6.33;4.63;;;;;21.50;100235.00;;;;2054326;28;20219;-70
2024/02/27 03:11:17;;;;;;;5.90;4.67;;;;;21.20;100300.00;;;;2022307;29;20264;-70
2024/02/27 03:12:17;;;;;;;5.32;4.30;;;;;21.60;100315.00;;;;2031514;29;20229;-70
2024/02/27 03:13:18;;;;;;;6.33;4.53;;;;;21.50;100314.00;;;;2047661;28;20243;-70
2024/02/27 03:14:18;;;;;;;6.70;4.37;;;;;21.50;100310.00;;;;2059674;28;20229;-70
2024/02/27 03:15:19;;;;;;;5.50;4.20;;;;;21.50;100313.00;;;;2064249;28;20218;-70
2024/02/27 03:16:19;;;;;;;5.30;4.10;;;;;21.50;100313.00;;;;2053989;28;20258;-70
2024/02/27 03:17:19;;;;;;;6.40;4.80;;;;;21.50;100316.00;;;;2063587;28;20683;-70
2024/02/27 03:18:19;;;;;;;6.10;4.33;;;;;21.50;100323.00;;;;2062259;28;20242;-70
2024/02/27 03:19:20;;;;;;;5.07;3.83;;;;;21.50;100307.00;;;;2063462;28;20219;-70
2024/02/27 03:20:20;;;;;;;4.83;3.80;;;;;21.50;100314.00;;;;2064103;28;20226;-70
2024/02/27 03:21:21;;;;;;;5.13;3.80;;;;;21.50;100319.00;;;;2051757;28;20223;-70
2024/02/27 03:22:21;;;;;;;5.63;4.07;;;;;21.50;100315.00;;;;2064135;28;20219;-70
2024/02/27 03:23:21;;;;;;;5.70;4.30;;;;;21.50;100189.00;;;;2063988;28;20211;-70
2024/02/27 03:24:22;;;;;;;5.60;3.90;;;;;21.50;100318.00;;;;2052686;28;20227;-70
2024/02/27 03:25:22;;;;;;;5.63;4.30;;;;;21.50;100332.00;;;;2055214;28;20222;-70
2024/02/27 03:26:23;;;;;;;5.40;4.00;;;;;21.50;100333.00;;;;2047014;28;20238;-70
2024/02/27 03:27:23;;;;;;;5.03;4.10;;;;;21.50;100324.00;;;;2069592;28;20222;-70
2024/02/27 03:28:23;;;;;;;5.50;3.80;;;;;21.50;100340.00;;;;2063639;28;20221;-71
2024/02/27 03:29:24;;;;;;;6.23;4.40;;;;;21.50;100266.00;;;;2060900;28;20214;-71
2024/02/27 03:30:25;;;;;;;5.17;3.87;;;;;21.50;100322.00;;;;2055020;28;20223;-71
2024/02/27 03:31:26;;;;;;;5.05;3.75;;;;;21.50;100335.00;;;;2036840;28;20298;-70
2024/02/27 03:32:26;;;;;;;4.53;3.53;;;;;21.50;100217.00;;;;2045241;28;20770;-70
2024/02/27 03:33:26;;;;;;;5.40;3.87;;;;;21.50;100312.00;;;;2046733;28;20744;-71
2024/02/27 03:34:27;;;;;;;5.97;4.13;;;;;21.50;100320.00;;;;2023533;29;20698;-70
2024/02/27 03:35:27;;;;;;;5.23;3.83;;;;;21.40;100330.00;;;;2023851;29;20214;-70
2024/02/27 03:36:27;;;;;;;5.13;3.77;;;;;21.40;100220.00;;;;2033713;28;20234;-70
2024/02/27 03:37:28;;;;;;;4.90;3.57;;;;;21.40;100278.00;;;;2047228;28;20208;-70
2024/02/27 03:38:28;;;;;;;6.30;3.90;;;;;21.50;100325.00;;;;2053042;28;20277;-70
2024/02/27 03:39:29;;;;;;;4.80;3.47;;;;;21.50;100312.00;;;;2063358;28;20211;-70
2024/02/27 03:40:29;;;;;;;4.83;3.70;;;;;21.50;100292.00;;;;2054037;28;20195;-70
2024/02/27 03:41:29;;;;;;;5.17;4.23;;;;;21.50;100325.00;;;;2052027;28;20219;-70
2024/02/27 03:42:30;;;;;;;5.23;3.70;;;;;21.40;100295.00;;;;2055163;28;20298;-70
2024/02/27 03:43:30;;;;;;;4.90;3.53;;;;;21.40;100273.00;;;;2054820;28;20211;-70
2024/02/27 03:44:30;;;;;;;5.00;3.77;;;;;21.40;100326.00;;;;2064938;28;20226;-70
2024/02/27 03:45:30;;;;;;;5.20;3.97;;;;;21.40;100331.00;;;;2066803;28;20207;-70
2024/02/27 03:46:31;;;;;;;4.40;3.57;;;;;21.40;100335.00;;;;2045782;28;20231;-70
2024/02/27 03:47:31;;;;;;;5.93;4.47;;;;;21.50;100313.00;;;;2054981;28;20219;-70
2024/02/27 03:48:31;;;;;;;5.47;3.97;;;;;21.40;100322.00;;;;2063891;28;20741;-70
2024/02/27 03:49:32;;;;;;;4.80;3.60;;;;;21.40;100331.00;;;;2063907;28;20215;-70
2024/02/27 03:50:32;;;;;;;5.50;3.70;;;;;21.40;100335.00;;;;2062633;28;20238;-70
2024/02/27 03:51:32;;;;;;;4.80;3.33;;;;;21.40;100330.00;;;;2052811;28;20222;-70
2024/02/27 03:52:33;;;;;;;5.90;3.70;;;;;21.40;100336.00;;;;2058588;28;20219;-70
2024/02/27 03:53:33;;;;;;;5.20;3.70;;;;;21.40;100335.00;;;;2063895;28;20693;-70
2024/02/27 03:54:33;;;;;;;4.97;3.60;;;;;21.40;100346.00;;;;2062843;28;20624;-70
2024/02/27 03:55:34;;;;;;;4.73;3.60;;;;;21.40;100332.00;;;;2063396;28;20215;-70
2024/02/27 03:56:34;;;;;;;5.20;4.07;;;;;21.40;100344.00;;;;2054268;28;20215;-70
2024/02/27 03:57:34;;;;;;;4.70;3.50;;;;;21.40;100345.00;;;;2063318;28;20207;-70
2024/02/27 03:58:37;;;;;;;4.20;3.13;;;;;21.40;100342.00;;;;2063840;28;20234;-70
2024/02/27 03:59:38;;;;;;;5.78;3.97;;;;;21.40;100335.00;;;;2062930;28;20214;-70
2024/02/27 04:00:38;;;;;;;5.83;3.90;;;;;21.40;100339.00;;;;2055171;28;20215;-70
2024/02/27 04:01:38;;;;;;;5.13;3.73;;;;;21.40;100335.00;;;;2042138;28;20227;-70
2024/02/27 04:02:39;;;;;;;4.90;3.57;;;;;21.40;100342.00;;;;2063282;28;20578;-70
2024/02/27 04:03:39;;;;;;;4.97;3.23;;;;;21.40;100344.00;;;;2063801;28;20773;-70
2024/02/27 04:04:39;;;;;;;5.40;3.90;;;;;21.40;100340.00;;;;2062940;28;20641;-70
2024/02/27 04:05:40;;;;;;;4.50;3.27;;;;;21.40;100346.00;;;;2065929;28;20706;-71
2024/02/27 04:06:40;;;;;;;5.13;3.30;;;;;21.40;100339.00;;;;2055642;28;20221;-70
2024/02/27 04:07:41;;;;;;;5.00;3.33;;;;;21.40;100343.00;;;;2065046;28;20241;-70
2024/02/27 04:08:41;;;;;;;5.57;4.03;;;;;21.30;100346.00;;;;2069459;28;20210;-70
2024/02/27 04:09:41;;;;;;;5.20;3.73;;;;;21.40;100345.00;;;;2062835;28;20202;-70
2024/02/27 04:10:42;;;;;;;4.20;3.30;;;;;21.40;100342.00;;;;2063788;28;20211;-70
2024/02/27 04:11:42;;;;;;;6.57;3.63;;;;;21.40;100350.00;;;;2053707;28;20207;-70
2024/02/27 04:12:42;;;;;;;4.27;3.40;;;;;21.30;100346.00;;;;2051303;28;20240;-70
2024/02/27 04:13:43;;;;;;;4.80;3.23;;;;;21.30;100292.00;;;;2063004;28;20215;-70
2024/02/27 04:14:43;;;;;;;4.67;3.63;;;;;21.30;100345.00;;;;2054361;28;20211;-70
2024/02/27 04:15:46;;;;;;;5.10;3.60;;;;;21.40;100349.00;;;;2055148;28;20239;-70
2024/02/27 04:16:46;;;;;;;5.63;3.80;;;;;21.30;100359.00;;;;2053733;28;20276;-70
2024/02/27 04:17:47;;;;;;;5.03;3.47;;;;;21.30;100358.00;;;;2063682;28;20286;-70
2024/02/27 04:18:47;;;;;;;5.70;3.70;;;;;21.30;100262.00;;;;2063285;28;20249;-70
2024/02/27 04:19:47;;;;;;;6.10;3.60;;;;;21.30;100353.00;;;;2063642;28;20215;-70
2024/02/27 04:20:48;;;;;;;4.50;3.33;;;;;21.30;100361.00;;;;2063553;28;20226;-70
2024/02/27 04:21:48;;;;;;;4.37;3.07;;;;;21.30;100342.00;;;;2053990;28;20207;-70
2024/02/27 04:22:48;;;;;;;4.57;3.40;;;;;21.30;100364.00;;;;2063769;28;20210;-70
2024/02/27 04:23:49;;;;;;;3.97;3.10;;;;;21.30;100359.00;;;;2062911;28;20686;-70
2024/02/27 04:24:49;;;;;;;4.60;3.17;;;;;21.30;100360.00;;;;2063699;28;20554;-70
2024/02/27 04:25:49;;;;;;;5.30;3.87;;;;;21.30;100359.00;;;;2063254;28;20266;-70
2024/02/27 04:26:50;;;;;;;4.83;3.30;;;;;21.40;100369.00;;;;2054115;28;20226;-70
2024/02/27 04:27:50;;;;;;;4.67;3.50;;;;;21.30;100369.00;;;;2044895;28;20235;-70
2024/02/27 04:28:50;;;;;;;5.00;3.90;;;;;21.30;100379.00;;;;2054816;28;20259;-70
2024/02/27 04:29:51;;;;;;;4.90;3.20;;;;;21.30;100365.00;;;;2061883;28;20213;-70
2024/02/27 04:30:51;;;;;;;5.37;3.50;;;;;21.30;100372.00;;;;2054580;28;20211;-70
2024/02/27 04:31:51;;;;;;;4.30;3.30;;;;;21.30;100365.00;;;;2045658;28;20636;-70
2024/02/27 04:32:52;;;;;;;3.87;2.97;;;;;21.30;100356.00;;;;2052084;28;20223;-70
2024/02/27 04:33:52;;;;;;;4.03;3.10;;;;;21.30;100374.00;;;;2067319;28;20214;-70
2024/02/27 04:34:54;;;;;;;4.20;3.20;;;;;21.30;100370.00;;;;2054992;28;20735;-70
2024/02/27 04:35:54;;;;;;;4.47;3.15;;;;;21.30;100369.00;;;;2054370;28;20231;-70
2024/02/27 04:36:56;;;;;;;4.40;3.27;;;;;21.30;100365.00;;;;2055603;28;20218;-70
2024/02/27 04:37:56;;;;;;;4.53;3.50;;;;;21.30;100365.00;;;;2053514;28;20311;-70
2024/02/27 04:38:57;;;;;;;4.00;3.00;;;;;21.30;100367.00;;;;2052371;28;20226;-70
2024/02/27 04:39:58;;;;;;;4.27;3.30;;;;;21.30;100367.00;;;;2063068;28;20231;-70
2024/02/27 04:40:58;;;;;;;4.23;3.00;;;;;21.30;100368.00;;;;2056688;28;20214;-71
2024/02/27 04:41:58;;;;;;;4.03;3.13;;;;;21.30;100372.00;;;;2062629;28;20221;-70
2024/02/27 04:42:58;;;;;;;4.33;3.17;;;;;21.30;100375.00;;;;2062837;28;20211;-70
2024/02/27 04:43:59;;;;;;;4.07;3.17;;;;;21.30;100375.00;;;;2065162;28;20215;-70
2024/02/27 04:44:59;;;;;;;5.20;3.47;;;;;21.30;100372.00;;;;2064783;28;20245;-71
2024/02/27 04:45:59;;;;;;;4.40;3.60;;;;;21.30;100304.00;;;;2052646;28;20230;-71
2024/02/27 04:47:00;;;;;;;4.20;3.43;;;;;21.30;100381.00;;;;2065195;28;20789;-71
2024/02/27 04:48:03;;;;;;;4.10;3.10;;;;;21.30;100378.00;;;;2064893;28;20581;-70
2024/02/27 04:49:03;;;;;;;4.85;4.00;;;;;21.20;100377.00;;;;2055621;28;20650;-70
2024/02/27 04:50:04;;;;;;;4.97;3.23;;;;;21.30;100371.00;;;;2055544;28;20270;-70
2024/02/27 04:51:06;;;;;;;4.30;3.27;;;;;21.30;100382.00;;;;2054563;28;20218;-70
2024/02/27 04:52:06;;;;;;;4.38;3.13;;;;;21.30;100368.00;;;;2060694;28;20227;-70
2024/02/27 04:53:06;;;;;;;4.23;3.30;;;;;21.30;100374.00;;;;2065152;28;20720;-70
2024/02/27 04:54:07;;;;;;;5.07;3.50;;;;;21.30;100379.00;;;;2064606;28;20229;-70
2024/02/27 04:55:07;;;;;;;4.60;3.07;;;;;21.30;100377.00;;;;2064580;28;20207;-70
2024/02/27 04:56:08;;;;;;;4.70;3.40;;;;;21.30;100379.00;;;;2046843;28;20208;-70
2024/02/27 04:57:08;;;;;;;4.40;2.70;;;;;21.30;100387.00;;;;2056131;28;20227;-70